Time,TemperatureF,DewpointF,PressureIn,WindDirection,WindDirectionDegrees,WindSpeedMPH,WindSpeedGustMPH,Humidity,HourlyPrecipIn,Conditions,Clouds,dailyrainin,SoftwareType,DateUTC
2013-11-01 00:01:00,62.2,56.0,29.49,SSW,204,4.0,9.0,80,0.00,,,0.19,Wunderground v.1.13,2013-11-01 04:01:00,
2013-11-01 00:02:00,62.3,56.0,29.48,SSW,199,0.0,9.0,80,0.00,,,0.19,Wunderground v.1.13,2013-11-01 04:02:00,
2013-11-01 00:07:00,62.5,56.2,29.48,South,181,4.0,11.0,80,0.00,,,0.19,Wunderground v.1.13,2013-11-01 04:07:00,
2013-11-01 00:12:00,62.5,56.2,29.48,South,169,0.0,12.0,80,0.00,,,0.19,Wunderground v.1.13,2013-11-01 04:12:00,
2013-11-01 00:17:00,62.5,56.2,29.48,SSE,157,2.0,5.0,80,0.00,,,0.19,Wunderground v.1.13,2013-11-01 04:17:00,
2013-11-01 00:22:00,62.6,56.3,29.47,SW,230,0.0,6.0,80,0.00,,,0.19,Wunderground v.1.13,2013-11-01 04:22:00,
2013-11-01 00:27:00,62.7,56.1,29.47,WSW,239,0.0,18.0,79,0.00,,,0.19,Wunderground v.1.13,2013-11-01 04:27:00,
2013-11-01 00:32:00,62.7,56.4,29.47,SSE,159,1.0,14.0,80,0.00,,,0.19,Wunderground v.1.13,2013-11-01 04:32:00,
2013-11-01 00:37:00,62.8,56.2,29.46,SSE,161,0.0,12.0,79,0.00,,,0.19,Wunderground v.1.13,2013-11-01 04:37:00,
2013-11-01 00:42:00,62.9,56.3,29.46,WSW,240,1.0,7.0,79,0.00,,,0.19,Wunderground v.1.13,2013-11-01 04:42:00,
2013-11-01 00:47:00,63.0,56.0,29.45,SSW,210,0.0,8.0,78,0.00,,,0.19,Wunderground v.1.13,2013-11-01 04:47:00,
2013-11-01 00:52:00,63.2,56.2,29.45,SSW,200,2.0,8.0,78,0.00,,,0.19,Wunderground v.1.13,2013-11-01 04:52:00,
2013-11-01 00:57:00,63.4,56.1,29.45,South,180,3.0,9.0,77,0.00,,,0.19,Wunderground v.1.13,2013-11-01 04:57:00,
2013-11-01 01:03:00,63.7,56.0,29.44,SW,234,0.0,3.0,76,0.00,,,0.19,Wunderground v.1.13,2013-11-01 05:03:00,
2013-11-01 01:08:00,63.9,56.2,29.44,SE,127,1.0,2.0,76,0.00,,,0.19,Wunderground v.1.13,2013-11-01 05:08:00,
2013-11-01 01:14:00,64.1,56.4,29.44,SE,143,0.0,2.0,76,0.00,,,0.19,Wunderground v.1.13,2013-11-01 05:14:00,
2013-11-01 01:20:00,64.3,56.6,29.44,South,180,2.0,2.0,76,0.00,,,0.19,Wunderground v.1.13,2013-11-01 05:20:00,
2013-11-01 01:25:00,64.3,56.6,29.44,South,183,1.0,3.0,76,0.00,,,0.19,Wunderground v.1.13,2013-11-01 05:25:00,
2013-11-01 01:31:00,64.3,56.6,29.43,WSW,250,8.0,8.0,76,0.00,,,0.19,Wunderground v.1.13,2013-11-01 05:31:00,
2013-11-01 01:37:00,64.3,56.6,29.43,South,174,0.0,4.0,76,0.00,,,0.19,Wunderground v.1.13,2013-11-01 05:37:00,
2013-11-01 01:43:00,64.4,56.3,29.42,SSE,160,8.0,8.0,75,0.00,,,0.19,Wunderground v.1.13,2013-11-01 05:43:00,
2013-11-01 01:46:00,64.4,56.3,29.42,SW,214,7.0,7.0,75,0.00,,,0.19,Wunderground v.1.13,2013-11-01 05:46:00,
2013-11-01 01:51:00,64.5,56.8,29.42,SSW,200,0.0,4.0,76,0.00,,,0.19,Wunderground v.1.13,2013-11-01 05:51:00,
2013-11-01 01:57:00,64.5,56.4,29.42,South,178,4.0,4.0,75,0.00,,,0.19,Wunderground v.1.13,2013-11-01 05:57:00,
2013-11-01 02:03:00,64.6,56.5,29.41,SSW,207,0.0,2.0,75,0.00,,,0.19,Wunderground v.1.13,2013-11-01 06:03:00,
2013-11-01 02:09:00,64.9,56.8,29.41,SSW,205,2.0,2.0,75,0.00,,,0.19,Wunderground v.1.13,2013-11-01 06:09:00,
2013-11-01 02:14:00,65.2,56.7,29.40,SSW,206,0.0,3.0,74,0.00,,,0.19,Wunderground v.1.13,2013-11-01 06:14:00,
2013-11-01 02:20:00,65.4,56.9,29.39,South,187,7.0,7.0,74,0.00,,,0.19,Wunderground v.1.13,2013-11-01 06:20:00,
2013-11-01 02:26:00,65.7,57.2,29.39,South,188,6.0,8.0,74,0.00,,,0.19,Wunderground v.1.13,2013-11-01 06:26:00,
2013-11-01 02:31:00,65.9,57.0,29.39,South,181,4.0,9.0,73,0.00,,,0.19,Wunderground v.1.13,2013-11-01 06:31:00,
2013-11-01 02:36:00,66.2,57.3,29.38,SSW,201,6.0,9.0,73,0.00,,,0.19,Wunderground v.1.13,2013-11-01 06:36:00,
2013-11-01 02:42:00,66.5,57.2,29.38,SSW,211,6.0,6.0,72,0.00,,,0.19,Wunderground v.1.13,2013-11-01 06:42:00,
2013-11-01 02:47:00,66.7,57.4,29.37,South,188,7.0,7.0,72,0.00,,,0.19,Wunderground v.1.13,2013-11-01 06:47:00,
2013-11-01 02:53:00,67.0,57.7,29.37,South,177,7.0,7.0,72,0.00,,,0.00,Wunderground v.1.13,2013-11-01 06:53:00,
2013-11-01 02:58:00,67.2,57.5,29.37,SSE,165,12.0,12.0,71,0.00,,,0.00,Wunderground v.1.13,2013-11-01 06:58:00,
2013-11-01 03:03:00,67.6,57.9,29.36,SSW,197,1.0,10.0,71,0.00,,,0.00,Wunderground v.1.13,2013-11-01 07:03:00,
2013-11-01 03:09:00,68.0,57.8,29.36,SW,227,4.0,18.0,70,0.00,,,0.00,Wunderground v.1.13,2013-11-01 07:09:00,
2013-11-01 03:14:00,68.3,57.7,29.36,SSW,204,5.0,14.0,69,0.00,,,0.00,Wunderground v.1.13,2013-11-01 07:14:00,
2013-11-01 03:19:00,68.7,57.7,29.36,SSW,209,5.0,13.0,68,0.00,,,0.00,Wunderground v.1.13,2013-11-01 07:19:00,
2013-11-01 03:24:00,69.1,58.1,29.35,South,169,5.0,17.0,68,0.00,,,0.00,Wunderground v.1.13,2013-11-01 07:24:00,
2013-11-01 03:29:00,69.6,58.2,29.36,SE,134,13.0,14.0,67,0.00,,,0.00,Wunderground v.1.13,2013-11-01 07:29:00,
2013-11-01 03:34:00,70.1,58.2,29.35,SSE,166,22.0,28.0,66,0.00,,,0.00,Wunderground v.1.13,2013-11-01 07:34:00,
2013-11-01 03:39:00,70.6,58.3,29.34,SW,230,8.0,26.0,65,0.00,,,0.00,Wunderground v.1.13,2013-11-01 07:39:00,
2013-11-01 03:44:00,70.8,58.0,29.35,SE,139,8.0,18.0,64,0.00,,,0.00,Wunderground v.1.13,2013-11-01 07:44:00,
2013-11-01 03:49:00,70.9,58.1,29.34,SSW,209,3.0,21.0,64,0.00,,,0.00,Wunderground v.1.13,2013-11-01 07:49:00,
2013-11-01 03:54:00,71.1,58.3,29.35,South,185,15.0,21.0,64,0.00,,,0.00,Wunderground v.1.13,2013-11-01 07:54:00,
2013-11-01 03:59:00,71.3,58.1,29.34,South,171,2.0,18.0,63,0.00,,,0.00,Wunderground v.1.13,2013-11-01 07:59:00,
2013-11-01 04:04:00,71.6,58.3,29.34,South,190,0.0,19.0,63,0.00,,,0.00,Wunderground v.1.13,2013-11-01 08:04:00,
2013-11-01 04:09:00,71.8,58.1,29.33,SW,219,6.0,17.0,62,0.00,,,0.00,Wunderground v.1.13,2013-11-01 08:09:00,
2013-11-01 04:14:00,71.9,58.2,29.32,West,269,2.0,12.0,62,0.00,,,0.00,Wunderground v.1.13,2013-11-01 08:14:00,
2013-11-01 04:19:00,71.7,59.7,29.33,NW,304,13.0,33.0,66,0.00,,,0.01,Wunderground v.1.13,2013-11-01 08:19:00,
2013-11-01 04:24:00,67.8,57.7,29.45,SSW,212,4.0,22.0,70,0.00,,,0.01,Wunderground v.1.13,2013-11-01 08:24:00,
2013-11-01 04:29:00,64.7,56.2,29.45,SSW,200,5.0,14.0,74,0.00,,,0.01,Wunderground v.1.13,2013-11-01 08:29:00,
2013-11-01 04:34:00,62.9,56.3,29.46,WSW,238,3.0,11.0,79,0.00,,,0.01,Wunderground v.1.13,2013-11-01 08:34:00,
2013-11-01 04:39:00,61.8,55.9,29.46,SW,216,0.0,8.0,81,0.00,,,0.02,Wunderground v.1.13,2013-11-01 08:39:00,
2013-11-01 04:44:00,60.9,55.7,29.47,SW,214,0.0,9.0,83,0.00,,,0.02,Wunderground v.1.13,2013-11-01 08:44:00,
2013-11-01 04:49:00,60.0,55.2,29.48,WSW,240,0.0,10.0,84,0.00,,,0.02,Wunderground v.1.13,2013-11-01 08:49:00,
2013-11-01 04:54:00,59.3,54.8,29.48,West,261,4.0,15.0,85,0.00,,,0.02,Wunderground v.1.13,2013-11-01 08:54:00,
2013-11-01 04:59:00,58.8,54.6,29.49,South,173,0.0,7.0,86,0.00,,,0.02,Wunderground v.1.13,2013-11-01 08:59:00,
2013-11-01 05:04:00,58.6,54.7,29.49,South,173,0.0,3.0,87,0.00,,,0.02,Wunderground v.1.13,2013-11-01 09:04:00,
2013-11-01 05:09:00,58.3,54.4,29.49,South,186,5.0,9.0,87,0.00,,,0.02,Wunderground v.1.13,2013-11-01 09:09:00,
2013-11-01 05:14:00,58.0,54.5,29.48,South,179,0.0,11.0,88,0.00,,,0.02,Wunderground v.1.13,2013-11-01 09:14:00,
2013-11-01 05:19:00,57.8,54.3,29.48,SSW,201,2.0,8.0,88,0.00,,,0.02,Wunderground v.1.13,2013-11-01 09:19:00,
2013-11-01 05:24:00,57.5,54.0,29.48,WSW,247,0.0,7.0,88,0.00,,,0.03,Wunderground v.1.13,2013-11-01 09:24:00,
2013-11-01 05:29:00,57.3,54.1,29.47,WSW,244,0.0,3.0,89,0.00,,,0.03,Wunderground v.1.13,2013-11-01 09:29:00,
2013-11-01 05:34:00,57.2,54.0,29.46,SW,221,0.0,6.0,89,0.00,,,0.03,Wunderground v.1.13,2013-11-01 09:34:00,
2013-11-01 05:39:00,57.0,53.8,29.47,SSW,198,5.0,11.0,89,0.00,,,0.03,Wunderground v.1.13,2013-11-01 09:39:00,
2013-11-01 05:44:00,56.9,53.7,29.47,SSW,199,3.0,8.0,89,0.00,,,0.03,Wunderground v.1.13,2013-11-01 09:44:00,
2013-11-01 05:49:00,56.8,53.6,29.47,South,170,1.0,9.0,89,0.00,,,0.03,Wunderground v.1.13,2013-11-01 09:49:00,
2013-11-01 05:54:00,56.7,53.5,29.46,SW,214,0.0,7.0,89,0.00,,,0.03,Wunderground v.1.13,2013-11-01 09:54:00,
2013-11-01 05:59:00,56.6,53.7,29.46,SSW,192,0.0,6.0,90,0.00,,,0.03,Wunderground v.1.13,2013-11-01 09:59:00,
2013-11-01 06:04:00,56.5,53.3,29.47,SSW,208,2.0,11.0,89,0.00,,,0.04,Wunderground v.1.13,2013-11-01 10:04:00,
2013-11-01 06:09:00,56.5,53.3,29.46,South,191,8.0,10.0,89,0.00,,,0.04,Wunderground v.1.13,2013-11-01 10:09:00,
2013-11-01 06:14:00,56.5,53.3,29.47,SW,218,1.0,11.0,89,0.00,,,0.04,Wunderground v.1.13,2013-11-01 10:14:00,
2013-11-01 06:19:00,56.4,53.2,29.47,SW,219,4.0,4.0,89,0.00,,,0.04,Wunderground v.1.13,2013-11-01 10:19:00,
2013-11-01 06:25:00,56.4,53.2,29.49,SSW,211,6.0,6.0,89,0.00,,,0.04,Wunderground v.1.13,2013-11-01 10:25:00,
2013-11-01 06:30:00,56.4,53.2,29.48,South,183,0.0,3.0,89,0.00,,,0.04,Wunderground v.1.13,2013-11-01 10:30:00,
2013-11-01 06:35:00,56.3,53.1,29.48,SSW,205,6.0,6.0,89,0.00,,,0.04,Wunderground v.1.13,2013-11-01 10:35:00,
2013-11-01 06:40:00,56.3,52.8,29.49,WSW,257,0.0,3.0,88,0.00,,,0.04,Wunderground v.1.13,2013-11-01 10:40:00,
2013-11-01 06:45:00,56.3,52.8,29.50,SSW,195,4.0,8.0,88,0.00,,,0.04,Wunderground v.1.13,2013-11-01 10:45:00,
2013-11-01 06:50:00,56.2,53.0,29.52,SW,227,3.0,12.0,89,0.00,,,0.04,Wunderground v.1.13,2013-11-01 10:50:00,
2013-11-01 06:55:00,56.1,52.9,29.53,SSW,209,6.0,6.0,89,0.00,,,0.04,Wunderground v.1.13,2013-11-01 10:55:00,
2013-11-01 07:00:00,56.1,52.9,29.51,SW,221,5.0,10.0,89,0.00,,,0.04,Wunderground v.1.13,2013-11-01 11:00:00,
2013-11-01 07:05:00,56.0,52.8,29.50,SW,228,6.0,6.0,89,0.00,,,0.04,Wunderground v.1.13,2013-11-01 11:05:00,
2013-11-01 07:10:00,55.9,52.7,29.53,SW,225,0.0,4.0,89,0.00,,,0.04,Wunderground v.1.13,2013-11-01 11:10:00,
2013-11-01 07:15:00,55.8,52.6,29.53,SW,218,0.0,4.0,89,0.00,,,0.04,Wunderground v.1.13,2013-11-01 11:15:00,
2013-11-01 07:20:00,55.7,52.8,29.52,SSW,192,0.0,4.0,90,0.00,,,0.05,Wunderground v.1.13,2013-11-01 11:20:00,
2013-11-01 07:25:00,55.7,52.8,29.53,SSW,199,3.0,5.0,90,0.00,,,0.05,Wunderground v.1.13,2013-11-01 11:25:00,
2013-11-01 07:30:00,55.7,52.8,29.53,South,188,0.0,5.0,90,0.00,,,0.05,Wunderground v.1.13,2013-11-01 11:30:00,
2013-11-01 07:35:00,55.7,52.8,29.54,SSW,196,0.0,2.0,90,0.00,,,0.05,Wunderground v.1.13,2013-11-01 11:35:00,
2013-11-01 07:40:00,55.7,52.8,29.54,SSW,193,0.0,2.0,90,0.00,,,0.05,Wunderground v.1.13,2013-11-01 11:40:00,
2013-11-01 07:45:00,55.7,52.8,29.54,SW,216,1.0,4.0,90,0.00,,,0.05,Wunderground v.1.13,2013-11-01 11:45:00,
2013-11-01 07:50:00,55.7,52.8,29.54,SW,234,0.0,3.0,90,0.00,,,0.05,Wunderground v.1.13,2013-11-01 11:50:00,
2013-11-01 07:55:00,55.7,52.8,29.54,SSW,211,3.0,6.0,90,0.00,,,0.05,Wunderground v.1.13,2013-11-01 11:55:00,
2013-11-01 08:00:00,55.7,52.8,29.54,South,191,3.0,6.0,90,0.00,,,0.05,Wunderground v.1.13,2013-11-01 12:00:00,
2013-11-01 08:06:00,55.8,52.9,29.55,SW,225,0.0,4.0,90,0.00,,,0.06,Wunderground v.1.13,2013-11-01 12:06:00,
2013-11-01 08:11:00,55.9,52.7,29.55,SSW,193,0.0,3.0,89,0.00,,,0.06,Wunderground v.1.13,2013-11-01 12:11:00,
2013-11-01 08:16:00,56.0,52.8,29.55,South,190,0.0,8.0,89,0.00,,,0.06,Wunderground v.1.13,2013-11-01 12:16:00,
2013-11-01 08:21:00,56.0,52.8,29.55,SSW,197,0.0,10.0,89,0.00,,,0.06,Wunderground v.1.13,2013-11-01 12:21:00,
2013-11-01 08:26:00,56.2,53.0,29.56,SW,228,5.0,5.0,89,0.00,,,0.06,Wunderground v.1.13,2013-11-01 12:26:00,
2013-11-01 08:31:00,56.3,52.8,29.56,SSW,195,0.0,3.0,88,0.00,,,0.06,Wunderground v.1.13,2013-11-01 12:31:00,
2013-11-01 08:36:00,56.5,53.0,29.56,WSW,246,5.0,8.0,88,0.00,,,0.06,Wunderground v.1.13,2013-11-01 12:36:00,
2013-11-01 08:41:00,56.6,52.8,29.56,SW,227,4.0,5.0,87,0.00,,,0.06,Wunderground v.1.13,2013-11-01 12:41:00,
2013-11-01 08:46:00,56.8,53.0,29.56,SW,232,0.0,16.0,87,0.00,,,0.06,Wunderground v.1.13,2013-11-01 12:46:00,
2013-11-01 08:51:00,57.0,53.2,29.56,SSW,193,4.0,5.0,87,0.00,,,0.06,Wunderground v.1.13,2013-11-01 12:51:00,
2013-11-01 08:56:00,57.1,53.0,29.57,SSE,168,10.0,10.0,86,0.00,,,0.06,Wunderground v.1.13,2013-11-01 12:56:00,
2013-11-01 09:01:00,57.3,52.8,29.56,SSW,213,7.0,11.0,85,0.00,,,0.06,Wunderground v.1.13,2013-11-01 13:01:00,
2013-11-01 09:06:00,57.5,53.0,29.56,SW,228,3.0,9.0,85,0.00,,,0.06,Wunderground v.1.13,2013-11-01 13:06:00,
2013-11-01 09:11:00,57.9,53.1,29.56,WSW,256,0.0,6.0,84,0.00,,,0.07,Wunderground v.1.13,2013-11-01 13:11:00,
2013-11-01 09:16:00,58.2,53.1,29.56,West,269,8.0,15.0,83,0.00,,,0.07,Wunderground v.1.13,2013-11-01 13:16:00,
2013-11-01 09:21:00,58.6,53.1,29.56,SSW,196,1.0,11.0,82,0.00,,,0.07,Wunderground v.1.13,2013-11-01 13:21:00,
2013-11-01 09:26:00,58.8,53.0,29.57,SSW,197,7.0,9.0,81,0.00,,,0.07,Wunderground v.1.13,2013-11-01 13:26:00,
2013-11-01 09:31:00,59.0,53.2,29.57,West,273,0.0,8.0,81,0.00,,,0.07,Wunderground v.1.13,2013-11-01 13:31:00,
2013-11-01 09:36:00,59.3,53.1,29.57,WSW,256,10.0,11.0,80,0.00,,,0.07,Wunderground v.1.13,2013-11-01 13:36:00,
2013-11-01 09:41:00,59.5,53.3,29.56,SSW,213,2.0,16.0,80,0.00,,,0.07,Wunderground v.1.13,2013-11-01 13:41:00,
2013-11-01 09:46:00,59.7,52.8,29.57,West,263,1.0,5.0,78,0.00,,,0.07,Wunderground v.1.13,2013-11-01 13:46:00,
2013-11-01 09:51:00,59.7,52.8,29.56,SW,224,1.0,15.0,78,0.00,,,0.07,Wunderground v.1.13,2013-11-01 13:51:00,
2013-11-01 09:56:00,59.7,52.8,29.57,SSW,198,0.0,10.0,78,0.00,,,0.07,Wunderground v.1.13,2013-11-01 13:56:00,
2013-11-01 10:01:00,59.7,52.8,29.57,SW,224,1.0,6.0,78,0.00,,,0.07,Wunderground v.1.13,2013-11-01 14:01:00,
2013-11-01 10:06:00,59.8,52.9,29.57,SSW,212,7.0,17.0,78,0.00,,,0.07,Wunderground v.1.13,2013-11-01 14:06:00,
2013-11-01 10:11:00,60.0,52.8,29.57,SW,228,4.0,7.0,77,0.00,,,0.07,Wunderground v.1.13,2013-11-01 14:11:00,
2013-11-01 10:16:00,60.0,52.4,29.58,West,271,4.0,15.0,76,0.00,,,0.08,Wunderground v.1.13,2013-11-01 14:16:00,
2013-11-01 10:21:00,59.8,52.6,29.58,West,271,6.0,13.0,77,0.00,,,0.08,Wunderground v.1.13,2013-11-01 14:21:00,
2013-11-01 10:26:00,59.7,52.1,29.57,SW,232,5.0,8.0,76,0.00,,,0.08,Wunderground v.1.13,2013-11-01 14:26:00,
2013-11-01 10:31:00,59.5,51.9,29.57,South,174,1.0,10.0,76,0.00,,,0.08,Wunderground v.1.13,2013-11-01 14:31:00,
2013-11-01 10:36:00,59.4,52.2,29.58,SW,219,1.0,8.0,77,0.00,,,0.08,Wunderground v.1.13,2013-11-01 14:36:00,
2013-11-01 10:41:00,59.6,52.4,29.58,WSW,252,6.0,14.0,77,0.00,,,0.08,Wunderground v.1.13,2013-11-01 14:41:00,
2013-11-01 10:46:00,60.2,52.6,29.58,SW,222,5.0,20.0,76,0.00,,,0.08,Wunderground v.1.13,2013-11-01 14:46:00,
2013-11-01 10:51:00,61.0,53.4,29.58,SW,225,0.0,3.0,76,0.00,,,0.08,Wunderground v.1.13,2013-11-01 14:51:00,
2013-11-01 10:56:00,61.5,53.1,29.58,NNW,338,0.0,6.0,74,0.00,,,0.08,Wunderground v.1.13,2013-11-01 14:56:00,
2013-11-01 11:01:00,61.9,52.4,29.58,SSW,207,9.0,16.0,71,0.00,,,0.08,Wunderground v.1.13,2013-11-01 15:01:00,
2013-11-01 11:06:00,62.0,51.7,29.58,WSW,254,4.0,6.0,69,0.00,,,0.08,Wunderground v.1.13,2013-11-01 15:06:00,
2013-11-01 11:11:00,62.2,51.9,29.58,South,179,4.0,13.0,69,0.00,,,0.08,Wunderground v.1.13,2013-11-01 15:11:00,
2013-11-01 11:16:00,62.4,52.1,29.57,West,269,7.0,17.0,69,0.00,,,0.08,Wunderground v.1.13,2013-11-01 15:16:00,
2013-11-01 11:21:00,62.2,51.9,29.57,West,278,2.0,7.0,69,0.00,,,0.08,Wunderground v.1.13,2013-11-01 15:21:00,
2013-11-01 11:26:00,61.8,51.1,29.58,SW,221,2.0,6.0,68,0.00,,,0.08,Wunderground v.1.13,2013-11-01 15:26:00,
2013-11-01 11:31:00,61.1,50.5,29.58,WSW,257,5.0,9.0,68,0.00,,,0.08,Wunderground v.1.13,2013-11-01 15:31:00,
2013-11-01 11:36:00,60.6,50.0,29.59,WNW,293,0.0,8.0,68,0.00,,,0.08,Wunderground v.1.13,2013-11-01 15:36:00,
2013-11-01 11:41:00,60.2,49.6,29.59,West,266,11.0,15.0,68,0.00,,,0.08,Wunderground v.1.13,2013-11-01 15:41:00,
2013-11-01 11:46:00,59.8,48.8,29.59,West,261,10.0,11.0,67,0.00,,,0.08,Wunderground v.1.13,2013-11-01 15:46:00,
2013-11-01 11:51:00,59.9,48.9,29.59,WSW,255,1.0,8.0,67,0.00,,,0.08,Wunderground v.1.13,2013-11-01 15:51:00,
2013-11-01 11:56:00,61.0,49.1,29.59,SSW,196,0.0,8.0,65,0.00,,,0.08,Wunderground v.1.13,2013-11-01 15:56:00,
2013-11-01 12:01:00,61.1,48.8,29.60,WSW,248,3.0,3.0,64,0.00,,,0.08,Wunderground v.1.13,2013-11-01 16:01:00,
2013-11-01 12:06:00,61.6,48.9,29.59,SW,221,4.0,4.0,63,0.00,,,0.08,Wunderground v.1.13,2013-11-01 16:06:00,
2013-11-01 12:11:00,62.0,49.3,29.59,WNW,282,1.0,11.0,63,0.00,,,0.08,Wunderground v.1.13,2013-11-01 16:11:00,
2013-11-01 12:16:00,62.5,49.7,29.59,WSW,248,2.0,10.0,63,0.00,,,0.08,Wunderground v.1.13,2013-11-01 16:16:00,
2013-11-01 12:21:00,62.8,48.7,29.60,WSW,254,3.0,14.0,60,0.00,,,0.08,Wunderground v.1.13,2013-11-01 16:21:00,
2013-11-01 12:26:00,62.7,48.6,29.59,West,273,0.0,6.0,60,0.00,,,0.08,Wunderground v.1.13,2013-11-01 16:26:00,
2013-11-01 12:31:00,63.0,48.4,29.60,WSW,243,1.0,4.0,59,0.00,,,0.08,Wunderground v.1.13,2013-11-01 16:31:00,
2013-11-01 12:36:00,63.2,48.2,29.59,WSW,242,1.0,18.0,58,0.00,,,0.08,Wunderground v.1.13,2013-11-01 16:36:00,
2013-11-01 12:41:00,63.1,47.6,29.59,SW,225,0.0,13.0,57,0.00,,,0.09,Wunderground v.1.13,2013-11-01 16:41:00,
2013-11-01 12:46:00,63.1,47.6,29.59,West,269,5.0,11.0,57,0.00,,,0.09,Wunderground v.1.13,2013-11-01 16:46:00,
2013-11-01 12:51:00,63.2,47.7,29.59,SW,217,1.0,7.0,57,0.00,,,0.09,Wunderground v.1.13,2013-11-01 16:51:00,
2013-11-01 12:56:00,63.4,47.9,29.59,West,280,0.0,6.0,57,0.00,,,0.09,Wunderground v.1.13,2013-11-01 16:56:00,
2013-11-01 13:01:00,63.6,47.6,29.59,WSW,244,17.0,17.0,56,0.00,,,0.09,Wunderground v.1.13,2013-11-01 17:01:00,
2013-11-01 13:06:00,63.5,47.0,29.59,WSW,247,3.0,10.0,55,0.00,,,0.09,Wunderground v.1.13,2013-11-01 17:06:00,
2013-11-01 13:11:00,64.2,48.2,29.59,South,174,0.0,5.0,56,0.00,,,0.09,Wunderground v.1.13,2013-11-01 17:11:00,
2013-11-01 13:16:00,64.0,47.0,29.59,WSW,248,0.0,5.0,54,0.00,,,0.09,Wunderground v.1.13,2013-11-01 17:16:00,
2013-11-01 13:21:00,63.4,47.4,29.59,SSW,213,1.0,14.0,56,0.00,,,0.09,Wunderground v.1.13,2013-11-01 17:21:00,
2013-11-01 13:26:00,63.5,46.6,29.58,WSW,238,4.0,8.0,54,0.00,,,0.09,Wunderground v.1.13,2013-11-01 17:26:00,
2013-11-01 13:31:00,63.6,46.6,29.58,NW,305,8.0,11.0,54,0.00,,,0.09,Wunderground v.1.13,2013-11-01 17:31:00,
2013-11-01 13:36:00,63.9,47.4,29.58,SW,230,3.0,7.0,55,0.00,,,0.09,Wunderground v.1.13,2013-11-01 17:36:00,
2013-11-01 13:41:00,64.5,47.5,29.58,SW,221,0.0,2.0,54,0.00,,,0.09,Wunderground v.1.13,2013-11-01 17:41:00,
2013-11-01 13:46:00,64.7,48.2,29.58,WNW,288,2.0,9.0,55,0.00,,,0.09,Wunderground v.1.13,2013-11-01 17:46:00,
2013-11-01 13:51:00,64.6,47.1,29.58,SW,228,8.0,13.0,53,0.00,,,0.09,Wunderground v.1.13,2013-11-01 17:51:00,
2013-11-01 13:56:00,64.6,47.1,29.58,South,175,11.0,11.0,53,0.00,,,0.09,Wunderground v.1.13,2013-11-01 17:56:00,
2013-11-01 14:01:00,64.4,46.9,29.58,WSW,256,0.0,5.0,53,0.00,,,0.09,Wunderground v.1.13,2013-11-01 18:01:00,
2013-11-01 14:06:00,64.6,47.1,29.59,SW,214,1.0,13.0,53,0.00,,,0.09,Wunderground v.1.13,2013-11-01 18:06:00,
2013-11-01 14:11:00,64.1,46.6,29.59,WSW,238,10.0,10.0,53,0.00,,,0.09,Wunderground v.1.13,2013-11-01 18:11:00,
2013-11-01 14:16:00,64.2,47.7,29.59,SSW,205,1.0,5.0,55,0.00,,,0.09,Wunderground v.1.13,2013-11-01 18:16:00,
2013-11-01 14:21:00,64.2,47.2,29.59,NW,323,0.0,9.0,54,0.00,,,0.09,Wunderground v.1.13,2013-11-01 18:21:00,
2013-11-01 14:26:00,64.0,46.5,29.58,WSW,240,3.0,3.0,53,0.00,,,0.09,Wunderground v.1.13,2013-11-01 18:26:00,
2013-11-01 14:31:00,63.8,46.3,29.58,WSW,254,2.0,7.0,53,0.00,,,0.09,Wunderground v.1.13,2013-11-01 18:31:00,
2013-11-01 14:36:00,63.9,46.4,29.58,SSW,205,5.0,7.0,53,0.00,,,0.09,Wunderground v.1.13,2013-11-01 18:36:00,
2013-11-01 14:41:00,63.8,46.3,29.59,SW,224,0.0,5.0,53,0.00,,,0.09,Wunderground v.1.13,2013-11-01 18:41:00,
2013-11-01 14:46:00,63.9,46.4,29.58,WSW,243,11.0,11.0,53,0.00,,,0.09,Wunderground v.1.13,2013-11-01 18:46:00,
2013-11-01 14:51:00,64.0,46.5,29.58,West,263,4.0,5.0,53,0.00,,,0.09,Wunderground v.1.13,2013-11-01 18:51:00,
2013-11-01 14:56:00,64.4,46.4,29.58,SSW,200,0.0,9.0,52,0.00,,,0.09,Wunderground v.1.13,2013-11-01 18:56:00,
2013-11-01 15:01:00,64.8,46.8,29.58,SW,234,1.0,3.0,52,0.00,,,0.09,Wunderground v.1.13,2013-11-01 19:01:00,
2013-11-01 15:06:00,64.8,46.8,29.57,SSW,196,6.0,7.0,52,0.00,,,0.09,Wunderground v.1.13,2013-11-01 19:06:00,
2013-11-01 15:11:00,65.0,46.9,29.57,SW,227,10.0,13.0,52,0.00,,,0.09,Wunderground v.1.13,2013-11-01 19:11:00,
2013-11-01 15:16:00,64.7,46.7,29.57,SSW,193,2.0,4.0,52,0.00,,,0.09,Wunderground v.1.13,2013-11-01 19:16:00,
2013-11-01 15:21:00,64.4,46.4,29.57,SSW,208,2.0,11.0,52,0.00,,,0.09,Wunderground v.1.13,2013-11-01 19:21:00,
2013-11-01 15:26:00,64.2,46.2,29.57,South,178,2.0,10.0,52,0.00,,,0.09,Wunderground v.1.13,2013-11-01 19:26:00,
2013-11-01 15:31:00,64.0,46.5,29.58,SSW,207,1.0,20.0,53,0.00,,,0.09,Wunderground v.1.13,2013-11-01 19:31:00,
2013-11-01 15:36:00,64.0,46.0,29.58,WNW,294,1.0,15.0,52,0.00,,,0.09,Wunderground v.1.13,2013-11-01 19:36:00,
2013-11-01 15:41:00,63.8,46.3,29.58,SW,227,1.0,12.0,53,0.00,,,0.09,Wunderground v.1.13,2013-11-01 19:41:00,
2013-11-01 15:46:00,63.6,46.6,29.58,West,261,0.0,9.0,54,0.00,,,0.09,Wunderground v.1.13,2013-11-01 19:46:00,
2013-11-01 15:51:00,63.3,45.9,29.58,West,265,0.0,2.0,53,0.00,,,0.09,Wunderground v.1.13,2013-11-01 19:51:00,
2013-11-01 15:56:00,63.2,46.8,29.58,WSW,246,2.0,4.0,55,0.00,,,0.09,Wunderground v.1.13,2013-11-01 19:56:00,
2013-11-01 16:01:00,63.2,46.3,29.58,NW,316,3.0,7.0,54,0.00,,,0.09,Wunderground v.1.13,2013-11-01 20:01:00,
2013-11-01 16:06:00,63.4,46.5,29.57,WSW,244,0.0,6.0,54,0.00,,,0.09,Wunderground v.1.13,2013-11-01 20:06:00,
2013-11-01 16:11:00,63.6,46.1,29.58,WSW,255,6.0,10.0,53,0.00,,,0.09,Wunderground v.1.13,2013-11-01 20:11:00,
2013-11-01 16:16:00,63.6,46.1,29.58,SW,214,2.0,12.0,53,0.00,,,0.09,Wunderground v.1.13,2013-11-01 20:16:00,
2013-11-01 16:21:00,63.6,45.6,29.58,WSW,249,8.0,8.0,52,0.00,,,0.09,Wunderground v.1.13,2013-11-01 20:21:00,
2013-11-01 16:26:00,63.4,46.0,29.58,WSW,258,0.0,4.0,53,0.00,,,0.09,Wunderground v.1.13,2013-11-01 20:26:00,
2013-11-01 16:31:00,63.3,45.9,29.58,WSW,254,0.0,1.0,53,0.00,,,0.09,Wunderground v.1.13,2013-11-01 20:31:00,
2013-11-01 16:36:00,63.2,46.3,29.58,SW,230,0.0,7.0,54,0.00,,,0.09,Wunderground v.1.13,2013-11-01 20:36:00,
2013-11-01 16:41:00,63.1,45.7,29.58,SW,222,0.0,1.0,53,0.00,,,0.09,Wunderground v.1.13,2013-11-01 20:41:00,
2013-11-01 16:46:00,62.9,45.5,29.58,SSW,205,0.0,2.0,53,0.00,,,0.09,Wunderground v.1.13,2013-11-01 20:46:00,
2013-11-01 16:51:00,62.9,46.0,29.58,SSW,205,0.0,2.0,54,0.00,,,0.09,Wunderground v.1.13,2013-11-01 20:51:00,
2013-11-01 16:56:00,62.8,45.9,29.59,SW,233,0.0,7.0,54,0.00,,,0.09,Wunderground v.1.13,2013-11-01 20:56:00,
2013-11-01 17:01:00,62.5,45.6,29.59,WSW,244,0.0,7.0,54,0.00,,,0.09,Wunderground v.1.13,2013-11-01 21:01:00,
2013-11-01 17:06:00,62.4,46.0,29.59,WSW,246,0.0,2.0,55,0.00,,,0.09,Wunderground v.1.13,2013-11-01 21:06:00,
2013-11-01 17:11:00,62.3,45.9,29.59,WSW,243,0.0,1.0,55,0.00,,,0.09,Wunderground v.1.13,2013-11-01 21:11:00,
2013-11-01 17:16:00,62.1,45.7,29.59,SSW,209,0.0,12.0,55,0.00,,,0.09,Wunderground v.1.13,2013-11-01 21:16:00,
2013-11-01 17:21:00,61.9,46.0,29.59,SSW,209,2.0,2.0,56,0.00,,,0.09,Wunderground v.1.13,2013-11-01 21:21:00,
2013-11-01 17:26:00,61.6,46.2,29.59,SSW,210,4.0,4.0,57,0.00,,,0.09,Wunderground v.1.13,2013-11-01 21:26:00,
2013-11-01 17:31:00,61.4,46.0,29.59,SSW,211,0.0,1.0,57,0.00,,,0.09,Wunderground v.1.13,2013-11-01 21:31:00,
2013-11-01 17:36:00,61.3,45.9,29.59,SSW,211,0.0,3.0,57,0.00,,,0.09,Wunderground v.1.13,2013-11-01 21:36:00,
2013-11-01 17:41:00,61.1,46.2,29.59,SSW,211,0.0,0.0,58,0.00,,,0.09,Wunderground v.1.13,2013-11-01 21:41:00,
2013-11-01 17:46:00,61.0,46.6,29.59,SSW,211,0.0,0.0,59,0.00,,,0.09,Wunderground v.1.13,2013-11-01 21:46:00,
2013-11-01 17:52:00,60.8,47.3,29.59,SSW,211,0.0,0.0,61,0.00,,,0.09,Wunderground v.1.13,2013-11-01 21:52:00,
2013-11-01 17:57:00,60.5,47.0,29.59,SSW,211,0.0,0.0,61,0.00,,,0.09,Wunderground v.1.13,2013-11-01 21:57:00,
2013-11-01 18:02:00,60.2,47.1,29.59,SSW,211,0.0,0.0,62,0.00,,,0.09,Wunderground v.1.13,2013-11-01 22:02:00,
2013-11-01 18:07:00,59.8,47.6,29.59,SSW,211,0.0,0.0,64,0.00,,,0.09,Wunderground v.1.13,2013-11-01 22:07:00,
2013-11-01 18:12:00,59.3,48.3,29.60,SSW,211,0.0,0.0,67,0.00,,,0.09,Wunderground v.1.13,2013-11-01 22:12:00,
2013-11-01 18:17:00,58.9,48.7,29.60,SSW,211,0.0,0.0,69,0.00,,,0.09,Wunderground v.1.13,2013-11-01 22:17:00,
2013-11-01 18:22:00,58.4,48.7,29.61,SSW,211,0.0,0.0,70,0.00,,,0.09,Wunderground v.1.13,2013-11-01 22:22:00,
2013-11-01 18:28:00,57.8,48.8,29.61,SSW,211,0.0,0.0,72,0.00,,,0.09,Wunderground v.1.13,2013-11-01 22:28:00,
2013-11-01 18:33:00,57.4,48.8,29.61,SSW,211,0.0,0.0,73,0.00,,,0.09,Wunderground v.1.13,2013-11-01 22:33:00,
2013-11-01 18:38:00,56.8,48.2,29.61,SSW,211,0.0,0.0,73,0.00,,,0.09,Wunderground v.1.13,2013-11-01 22:38:00,
2013-11-01 18:43:00,56.4,48.2,29.61,SSW,211,0.0,0.0,74,0.00,,,0.09,Wunderground v.1.13,2013-11-01 22:43:00,
2013-11-01 18:48:00,56.1,48.3,29.62,SSW,211,0.0,0.0,75,0.00,,,0.09,Wunderground v.1.13,2013-11-01 22:48:00,
2013-11-01 18:53:00,55.6,47.8,29.62,SSW,211,0.0,0.0,75,0.00,,,0.09,Wunderground v.1.13,2013-11-01 22:53:00,
2013-11-01 18:58:00,55.3,48.6,29.62,SSW,211,0.0,0.0,78,0.00,,,0.09,Wunderground v.1.13,2013-11-01 22:58:00,
2013-11-01 19:03:00,54.9,48.2,29.62,SSW,211,0.0,0.0,78,0.00,,,0.09,Wunderground v.1.13,2013-11-01 23:03:00,
2013-11-01 19:08:00,54.4,47.7,29.63,SSW,211,0.0,0.0,78,0.00,,,0.09,Wunderground v.1.13,2013-11-01 23:08:00,
2013-11-01 19:13:00,54.0,47.6,29.63,SSW,211,0.0,0.0,79,0.00,,,0.09,Wunderground v.1.13,2013-11-01 23:13:00,
2013-11-01 19:18:00,53.7,47.3,29.63,SSW,211,0.0,0.0,79,0.00,,,0.09,Wunderground v.1.13,2013-11-01 23:18:00,
2013-11-01 19:23:00,53.4,47.4,29.63,SSW,211,0.0,0.0,80,0.00,,,0.09,Wunderground v.1.13,2013-11-01 23:23:00,
2013-11-01 19:28:00,53.2,47.5,29.64,SSW,211,0.0,0.0,81,0.00,,,0.09,Wunderground v.1.13,2013-11-01 23:28:00,
2013-11-01 19:33:00,53.0,47.7,29.64,SSW,211,0.0,0.0,82,0.00,,,0.09,Wunderground v.1.13,2013-11-01 23:33:00,
2013-11-01 19:38:00,52.7,47.4,29.64,SSW,211,0.0,0.0,82,0.00,,,0.09,Wunderground v.1.13,2013-11-01 23:38:00,
2013-11-01 19:43:00,52.5,47.5,29.64,SSW,211,0.0,0.0,83,0.00,,,0.09,Wunderground v.1.13,2013-11-01 23:43:00,
2013-11-01 19:48:00,52.3,47.3,29.64,SSW,211,0.0,0.0,83,0.00,,,0.09,Wunderground v.1.13,2013-11-01 23:48:00,
2013-11-01 19:53:00,52.0,47.0,29.64,SSW,211,0.0,0.0,83,0.00,,,0.09,Wunderground v.1.13,2013-11-01 23:53:00,
2013-11-01 19:58:00,51.7,46.7,29.65,SSW,211,0.0,0.0,83,0.00,,,0.09,Wunderground v.1.13,2013-11-01 23:58:00,
2013-11-01 20:03:00,51.5,46.8,29.65,SSW,211,0.0,0.0,84,0.00,,,0.09,Wunderground v.1.13,2013-11-02 00:03:00,
2013-11-01 20:08:00,51.2,46.5,29.65,SSW,211,0.0,0.0,84,0.00,,,0.09,Wunderground v.1.13,2013-11-02 00:08:00,
2013-11-01 20:13:00,50.9,46.2,29.65,SSW,211,0.0,0.0,84,0.00,,,0.09,Wunderground v.1.13,2013-11-02 00:13:00,
2013-11-01 20:18:00,50.6,45.9,29.65,SSW,211,0.0,0.0,84,0.00,,,0.09,Wunderground v.1.13,2013-11-02 00:18:00,
2013-11-01 20:23:00,50.3,46.0,29.65,SSW,211,0.0,0.0,85,0.00,,,0.09,Wunderground v.1.13,2013-11-02 00:23:00,
2013-11-01 20:28:00,50.1,45.8,29.66,SSW,211,0.0,0.0,85,0.00,,,0.09,Wunderground v.1.13,2013-11-02 00:28:00,
2013-11-01 20:33:00,49.8,45.5,29.66,SSW,211,0.0,0.0,85,0.00,,,0.09,Wunderground v.1.13,2013-11-02 00:33:00,
2013-11-01 20:38:00,49.6,45.6,29.66,SSW,211,0.0,0.0,86,0.00,,,0.09,Wunderground v.1.13,2013-11-02 00:38:00,
2013-11-01 20:43:00,49.4,45.4,29.66,SSW,211,0.0,0.0,86,0.00,,,0.09,Wunderground v.1.13,2013-11-02 00:43:00,
2013-11-01 20:48:00,49.1,45.4,29.66,SSW,211,0.0,0.0,87,0.00,,,0.09,Wunderground v.1.13,2013-11-02 00:48:00,
2013-11-01 20:53:00,48.9,45.2,29.67,SSW,211,0.0,0.0,87,0.00,,,0.09,Wunderground v.1.13,2013-11-02 00:53:00,
2013-11-01 20:58:00,48.7,45.0,29.67,SSW,211,0.0,0.0,87,0.00,,,0.09,Wunderground v.1.13,2013-11-02 00:58:00,
2013-11-01 21:03:00,48.5,44.8,29.67,SSW,211,0.0,0.0,87,0.00,,,0.09,Wunderground v.1.13,2013-11-02 01:03:00,
2013-11-01 21:08:00,48.4,45.0,29.67,SSW,211,0.0,0.0,88,0.00,,,0.09,Wunderground v.1.13,2013-11-02 01:08:00,
2013-11-01 21:13:00,48.2,44.8,29.66,SSW,211,0.0,0.0,88,0.00,,,0.09,Wunderground v.1.13,2013-11-02 01:13:00,
2013-11-01 21:18:00,48.0,44.6,29.66,SSW,211,0.0,0.0,88,0.00,,,0.09,Wunderground v.1.13,2013-11-02 01:18:00,
2013-11-01 21:23:00,47.8,44.4,29.66,SSW,211,0.0,0.0,88,0.00,,,0.09,Wunderground v.1.13,2013-11-02 01:23:00,
2013-11-01 21:28:00,47.5,44.1,29.66,SSW,211,0.0,0.0,88,0.00,,,0.09,Wunderground v.1.13,2013-11-02 01:28:00,
2013-11-01 21:33:00,47.3,43.9,29.66,SSW,211,0.0,0.0,88,0.00,,,0.09,Wunderground v.1.13,2013-11-02 01:33:00,
2013-11-01 21:38:00,47.2,43.8,29.66,SSW,211,0.0,0.0,88,0.00,,,0.09,Wunderground v.1.13,2013-11-02 01:38:00,
2013-11-01 21:43:00,47.0,43.6,29.66,SSW,211,0.0,0.0,88,0.00,,,0.09,Wunderground v.1.13,2013-11-02 01:43:00,
2013-11-01 21:48:00,46.9,43.8,29.66,SSW,211,0.0,0.0,89,0.00,,,0.09,Wunderground v.1.13,2013-11-02 01:48:00,
2013-11-01 21:53:00,46.7,43.6,29.66,SSW,211,0.0,0.0,89,0.00,,,0.09,Wunderground v.1.13,2013-11-02 01:53:00,
2013-11-01 21:58:00,46.6,43.5,29.66,SSW,211,0.0,0.0,89,0.00,,,0.09,Wunderground v.1.13,2013-11-02 01:58:00,
2013-11-01 22:03:00,46.6,43.5,29.66,SSW,211,0.0,0.0,89,0.00,,,0.09,Wunderground v.1.13,2013-11-02 02:03:00,
2013-11-01 22:08:00,46.5,43.7,29.66,SSW,211,0.0,0.0,90,0.00,,,0.09,Wunderground v.1.13,2013-11-02 02:08:00,
2013-11-01 22:13:00,46.5,43.7,29.66,SSW,211,0.0,0.0,90,0.00,,,0.09,Wunderground v.1.13,2013-11-02 02:13:00,
2013-11-01 22:18:00,46.4,43.6,29.66,SSW,211,0.0,0.0,90,0.00,,,0.09,Wunderground v.1.13,2013-11-02 02:18:00,
2013-11-01 22:23:00,46.3,43.5,29.66,SSW,211,0.0,0.0,90,0.00,,,0.09,Wunderground v.1.13,2013-11-02 02:23:00,
2013-11-01 22:28:00,46.1,43.3,29.66,SSW,211,0.0,0.0,90,0.00,,,0.09,Wunderground v.1.13,2013-11-02 02:28:00,
2013-11-01 22:33:00,45.9,43.1,29.66,SSW,211,0.0,0.0,90,0.00,,,0.09,Wunderground v.1.13,2013-11-02 02:33:00,
2013-11-01 22:38:00,45.6,42.8,29.66,SSW,211,0.0,0.0,90,0.00,,,0.09,Wunderground v.1.13,2013-11-02 02:38:00,
2013-11-01 22:43:00,45.5,42.7,29.66,SSW,211,0.0,0.0,90,0.00,,,0.09,Wunderground v.1.13,2013-11-02 02:43:00,
2013-11-01 22:48:00,45.3,42.5,29.66,SSW,211,0.0,0.0,90,0.00,,,0.09,Wunderground v.1.13,2013-11-02 02:48:00,
2013-11-01 22:53:00,45.1,42.3,29.66,SSW,211,0.0,0.0,90,0.00,,,0.09,Wunderground v.1.13,2013-11-02 02:53:00,
2013-11-01 22:58:00,44.9,42.1,29.66,SSW,211,0.0,0.0,90,0.00,,,0.09,Wunderground v.1.13,2013-11-02 02:58:00,
2013-11-01 23:03:00,44.7,41.9,29.66,SSW,211,0.0,0.0,90,0.00,,,0.09,Wunderground v.1.13,2013-11-02 03:03:00,
2013-11-01 23:08:00,44.5,41.7,29.66,SSW,211,0.0,0.0,90,0.00,,,0.09,Wunderground v.1.13,2013-11-02 03:08:00,
2013-11-01 23:13:00,44.3,41.6,29.66,SSW,211,0.0,0.0,90,0.00,,,0.09,Wunderground v.1.13,2013-11-02 03:13:00,
2013-11-01 23:18:00,44.1,41.4,29.66,SSW,211,0.0,0.0,90,0.00,,,0.09,Wunderground v.1.13,2013-11-02 03:18:00,
2013-11-01 23:23:00,44.0,41.3,29.66,SSW,211,0.0,0.0,90,0.00,,,0.09,Wunderground v.1.13,2013-11-02 03:23:00,
2013-11-01 23:28:00,43.9,41.4,29.66,SSW,211,0.0,0.0,91,0.00,,,0.09,Wunderground v.1.13,2013-11-02 03:28:00,
2013-11-01 23:33:00,43.7,41.0,29.66,SSW,211,0.0,0.0,90,0.00,,,0.09,Wunderground v.1.13,2013-11-02 03:33:00,
2013-11-01 23:38:00,43.6,41.1,29.66,SSW,211,0.0,0.0,91,0.00,,,0.09,Wunderground v.1.13,2013-11-02 03:38:00,
2013-11-01 23:43:00,43.5,41.0,29.65,SSW,211,0.0,0.0,91,0.00,,,0.09,Wunderground v.1.13,2013-11-02 03:43:00,
2013-11-01 23:48:00,43.4,40.9,29.65,SSW,211,0.0,0.0,91,0.00,,,0.09,Wunderground v.1.13,2013-11-02 03:48:00,
2013-11-01 23:53:00,43.3,40.8,29.65,SSW,211,0.0,0.0,91,0.00,,,0.09,Wunderground v.1.13,2013-11-02 03:53:00,
2013-11-01 23:58:00,43.2,40.8,29.65,SSW,211,0.0,0.0,91,0.00,,,0.09,Wunderground v.1.13,2013-11-02 03:58:00,